createdAt,value
2023-11-24T00:01:03.893Z,88.85
2023-11-24T00:02:44.139Z,88.55
2023-11-24T00:04:24.564Z,87.95
2023-11-24T00:06:05.030Z,87.44
2023-11-24T00:07:45.375Z,87.91
2023-11-24T00:09:25.830Z,88.08
2023-11-24T00:11:06.117Z,87.61
2023-11-24T00:12:46.637Z,87.63
2023-11-24T00:14:26.964Z,87.51
2023-11-24T00:16:07.447Z,87.41
2023-11-24T00:17:47.762Z,87.08
2023-11-24T00:19:28.114Z,86.83
2023-11-24T00:21:08.516Z,86.76
2023-11-24T00:22:48.960Z,86.81
2023-11-24T00:24:29.339Z,86.65
2023-11-24T00:26:09.747Z,87.07
2023-11-24T00:27:50.109Z,86.81
2023-11-24T00:29:30.430Z,86.97
2023-11-24T00:31:10.890Z,86.6
2023-11-24T00:32:51.306Z,86.62
2023-11-24T00:34:31.681Z,86.8
2023-11-24T00:36:12.104Z,86.38
2023-11-24T00:37:52.437Z,86.18
2023-11-24T00:39:32.814Z,85.72
2023-11-24T00:41:13.216Z,86.07
2023-11-24T00:42:53.656Z,85.78
2023-11-24T00:44:34.054Z,84.2
2023-11-24T00:46:14.400Z,84.13
2023-11-24T00:47:54.793Z,84.39
2023-11-24T00:49:35.135Z,83.74
2023-11-24T00:51:15.524Z,83.97
2023-11-24T00:52:55.888Z,83.83
2023-11-24T00:54:36.278Z,84.08
2023-11-24T00:56:16.652Z,84.22
2023-11-24T00:57:57.022Z,84.33
2023-11-24T00:59:37.401Z,84.7
2023-11-24T01:01:17.853Z,85.17
2023-11-24T01:02:58.363Z,85.64
2023-11-24T01:04:38.570Z,85.91
2023-11-24T01:06:18.875Z,85.82
2023-11-24T01:07:59.181Z,86.19
2023-11-24T01:09:39.645Z,86.39
2023-11-24T01:11:19.980Z,86.39
2023-11-24T01:13:00.428Z,86.53
2023-11-24T01:14:40.715Z,86.33
2023-11-24T01:16:21.049Z,86.41
2023-11-24T01:18:01.500Z,86.89
2023-11-24T01:19:41.707Z,87.05
2023-11-24T01:21:22.131Z,86.81
2023-11-24T01:23:02.463Z,86.98
2023-11-24T01:24:42.803Z,87.2
2023-11-24T01:26:23.079Z,86.98
2023-11-24T01:28:03.531Z,86.76
2023-11-24T01:29:43.828Z,86.57
2023-11-24T01:31:24.222Z,86.48
2023-11-24T01:33:04.599Z,86.61
2023-11-24T01:34:45.053Z,86.5
2023-11-24T01:36:25.468Z,86.55
2023-11-24T01:38:05.766Z,86.25
2023-11-24T01:39:46.137Z,86.33
2023-11-24T01:41:26.392Z,86.45
2023-11-24T01:43:06.695Z,86.44
2023-11-24T01:44:47.159Z,86.87
2023-11-24T01:46:27.548Z,86.33
2023-11-24T01:48:07.882Z,86.24
2023-11-24T01:49:48.278Z,86.17
2023-11-24T01:51:28.734Z,85.72
2023-11-24T01:53:09.143Z,85.34
2023-11-24T01:54:49.566Z,85.32
2023-11-24T01:56:29.916Z,84.57
2023-11-24T01:58:10.211Z,84.66
2023-11-24T01:59:50.712Z,84.79
2023-11-24T02:01:31.132Z,84.72
2023-11-24T02:03:11.536Z,84.59
2023-11-24T02:04:51.845Z,84.46
2023-11-24T02:06:32.306Z,84.21
2023-11-24T02:08:12.769Z,83.74
2023-11-24T02:09:53.127Z,84
2023-11-24T02:11:33.468Z,84.22
2023-11-24T02:13:13.931Z,85.15
2023-11-24T02:14:54.264Z,86.06
2023-11-24T02:16:34.639Z,86.61
2023-11-24T02:18:15.048Z,86.84
2023-11-24T02:19:55.378Z,87.42
2023-11-24T02:21:35.851Z,87.09
2023-11-24T02:23:16.147Z,86.96
2023-11-24T02:24:56.586Z,87.12
2023-11-24T02:26:36.966Z,86.94
2023-11-24T02:28:17.316Z,86.7
2023-11-24T02:29:57.679Z,86.87
2023-11-24T02:31:38.189Z,86.99
2023-11-24T02:33:18.443Z,87.09
2023-11-24T02:34:58.786Z,87.29
2023-11-24T02:36:39.168Z,87.35
2023-11-24T02:38:19.455Z,87.54
2023-11-24T02:39:59.926Z,87.79
2023-11-24T02:41:40.189Z,88.15
2023-11-24T02:43:20.522Z,88.44
2023-11-24T02:45:00.908Z,88.66
2023-11-24T02:46:41.293Z,88.81
2023-11-24T02:48:21.906Z,89
2023-11-24T02:50:02.080Z,89.18
2023-11-24T02:51:42.517Z,89.2
2023-11-24T02:53:22.893Z,88.94
2023-11-24T02:55:03.483Z,88.46
2023-11-24T02:56:43.746Z,88.38
2023-11-24T02:58:24.109Z,87.31
2023-11-24T03:00:05.101Z,87.67
2023-11-24T03:01:44.892Z,87.65
2023-11-24T03:03:25.246Z,87.64
2023-11-24T03:05:05.749Z,87.71
2023-11-24T03:06:46.232Z,87.35
2023-11-24T03:08:26.556Z,87.26
2023-11-24T03:10:07.022Z,87.26
2023-11-24T03:11:47.405Z,87.28
2023-11-24T03:13:27.794Z,87.35
2023-11-24T03:15:08.153Z,87.19
2023-11-24T03:16:48.619Z,86.68
2023-11-24T03:18:29.051Z,86.96
2023-11-24T03:20:09.499Z,86.92
2023-11-24T03:21:49.896Z,86.67
2023-11-24T03:23:30.283Z,86.78
2023-11-24T03:25:10.661Z,86.8
2023-11-24T03:26:51.059Z,86.74
2023-11-24T03:28:31.506Z,86.71
2023-11-24T03:30:12.066Z,86.89
2023-11-24T03:31:52.232Z,86.77
2023-11-24T03:33:32.595Z,86.9
2023-11-24T03:35:12.895Z,86.89
2023-11-24T03:36:53.394Z,87.09
2023-11-24T03:38:33.686Z,86.97
2023-11-24T03:40:14.077Z,87.03
2023-11-24T03:41:54.487Z,87.12
2023-11-24T03:43:35.006Z,87.03
2023-11-24T03:45:15.283Z,87.12
2023-11-24T03:46:55.707Z,86.44
2023-11-24T03:48:36.080Z,86.54
2023-11-24T03:50:16.496Z,86.37
2023-11-24T03:51:57.034Z,86.56
2023-11-24T03:53:37.299Z,86.73
2023-11-24T03:55:17.659Z,86.77
2023-11-24T03:56:58.057Z,86.75
2023-11-24T03:58:38.442Z,86.15
2023-11-24T04:00:18.824Z,86.04
2023-11-24T04:01:59.225Z,85.85
2023-11-24T04:03:39.721Z,85.88
2023-11-24T04:05:19.944Z,85.98
2023-11-24T04:07:00.396Z,86.05
2023-11-24T04:08:40.730Z,85.98
2023-11-24T04:10:21.096Z,85.62
2023-11-24T04:12:01.451Z,85.8
2023-11-24T04:13:41.809Z,85.36
2023-11-24T04:15:22.178Z,85.61
2023-11-24T04:17:02.613Z,85.58
2023-11-24T04:18:43.027Z,85.57
2023-11-24T04:20:23.342Z,85.55
2023-11-24T04:22:03.873Z,85.61
2023-11-24T04:23:44.202Z,85.8
2023-11-24T04:25:24.637Z,85.96
2023-11-24T04:27:05.095Z,85.68
2023-11-24T04:28:45.480Z,85.49
2023-11-24T04:30:25.889Z,85.58
2023-11-24T04:32:06.379Z,85.86
2023-11-24T04:33:46.890Z,85.91
2023-11-24T04:35:27.189Z,85.89
2023-11-24T04:37:07.683Z,85.98
2023-11-24T04:38:48.116Z,86.27
2023-11-24T04:40:28.529Z,86.37
2023-11-24T04:42:08.931Z,86.54
2023-11-24T04:43:49.348Z,86.63
2023-11-24T04:45:29.739Z,86.8
2023-11-24T04:47:10.068Z,86.63
2023-11-24T04:48:50.433Z,86.57
2023-11-24T04:50:30.723Z,86.65
2023-11-24T04:52:11.157Z,87.05
2023-11-24T04:53:51.494Z,87.19
2023-11-24T04:55:31.930Z,87.17
2023-11-24T04:57:12.270Z,87.13
2023-11-24T04:58:52.693Z,87.35
2023-11-24T05:00:33.126Z,87.38
2023-11-24T05:02:13.520Z,87.51
2023-11-24T05:03:53.910Z,87.43
2023-11-24T05:05:34.268Z,87.21
2023-11-24T05:07:14.732Z,86.99
2023-11-24T05:08:55.188Z,86.79
2023-11-24T05:10:35.612Z,86.39
2023-11-24T05:12:16.006Z,86
2023-11-24T05:13:56.407Z,86.06
2023-11-24T05:15:36.818Z,86.23
2023-11-24T05:17:17.302Z,86.25
2023-11-24T05:18:57.715Z,85.64
2023-11-24T05:20:38.148Z,85.59
2023-11-24T05:22:18.554Z,85.45
2023-11-24T05:23:59.007Z,85.3
2023-11-24T05:25:39.311Z,85.37
2023-11-24T05:27:19.722Z,85.37
2023-11-24T05:29:00.225Z,85.44
2023-11-24T05:30:40.620Z,85.54
2023-11-24T05:32:20.931Z,85.4
2023-11-24T05:34:01.366Z,85.29
2023-11-24T05:35:41.920Z,85.11
2023-11-24T05:37:22.196Z,84.98
2023-11-24T05:39:02.484Z,84.97
2023-11-24T05:40:42.912Z,84.91
2023-11-24T05:42:23.336Z,85.1
2023-11-24T05:44:03.749Z,85.11
2023-11-24T05:45:44.233Z,85.12
2023-11-24T05:47:24.557Z,85.26
2023-11-24T05:49:04.879Z,84.91
2023-11-24T05:50:45.234Z,85.12
2023-11-24T05:52:25.659Z,84.97
2023-11-24T05:54:06.036Z,84.54
2023-11-24T05:55:46.378Z,84.33
2023-11-24T05:57:26.756Z,84.27
2023-11-24T05:59:07.074Z,84.19
2023-11-24T06:00:47.571Z,84.53
2023-11-24T06:02:27.938Z,84.98
2023-11-24T06:04:08.489Z,85.11
2023-11-24T06:05:48.772Z,85.35
2023-11-24T06:07:29.170Z,85.03
2023-11-24T06:09:09.644Z,85.25
2023-11-24T06:10:49.966Z,84.97
2023-11-24T06:12:30.547Z,85.49
2023-11-24T06:14:10.915Z,86.17
2023-11-24T06:15:51.395Z,86.42
2023-11-24T06:17:31.779Z,86.77
2023-11-24T06:19:12.301Z,86.65
2023-11-24T06:20:53.054Z,86.89
2023-11-24T06:22:32.995Z,86.76
2023-11-24T06:24:13.437Z,85.91
2023-11-24T06:25:53.863Z,86.23
2023-11-24T06:27:34.395Z,86.28
2023-11-24T06:29:14.753Z,86.35
2023-11-24T06:30:55.204Z,86.14
2023-11-24T06:32:35.545Z,85.91
2023-11-24T06:34:15.858Z,85.82
2023-11-24T06:35:56.152Z,86.22
2023-11-24T06:37:36.512Z,86.27
2023-11-24T06:39:16.866Z,86.02
2023-11-24T06:40:57.203Z,85.24
2023-11-24T06:42:37.590Z,85.17
2023-11-24T06:44:17.928Z,85.42
2023-11-24T06:45:58.306Z,85.29
2023-11-24T06:47:38.610Z,85.22
2023-11-24T06:49:19.019Z,85.23
2023-11-24T06:50:59.405Z,84.73
2023-11-24T06:52:39.836Z,84.45
2023-11-24T06:54:20.292Z,84.93
2023-11-24T06:56:00.667Z,84.7
2023-11-24T06:57:41.168Z,84.67
2023-11-24T06:59:21.506Z,84.65
2023-11-24T07:01:01.988Z,84.82
2023-11-24T07:02:42.328Z,85
2023-11-24T07:04:22.666Z,84.95
2023-11-24T07:06:03.032Z,85.02
2023-11-24T07:07:43.451Z,85.06
2023-11-24T07:09:23.942Z,85.27
2023-11-24T07:11:04.414Z,85.45
2023-11-24T07:12:45.166Z,85.16
2023-11-24T07:14:25.081Z,85.23
2023-11-24T07:16:05.714Z,85
2023-11-24T07:17:45.980Z,85.38
2023-11-24T07:19:26.243Z,85.86
2023-11-24T07:21:06.666Z,86.21
2023-11-24T07:22:47.046Z,86.67
2023-11-24T07:24:27.522Z,86.83
2023-11-24T07:26:07.894Z,86.86
2023-11-24T07:27:48.336Z,87.14
2023-11-24T07:29:28.713Z,86.97
2023-11-24T07:31:09.039Z,87.08
2023-11-24T07:32:49.422Z,87.36
2023-11-24T07:34:29.946Z,86.95
2023-11-24T07:36:10.141Z,86.78
2023-11-24T07:37:50.482Z,86.27
2023-11-24T07:39:30.873Z,86.15
2023-11-24T07:41:11.227Z,85.48
2023-11-24T07:42:51.676Z,85.27
2023-11-24T07:44:32.079Z,85.33
2023-11-24T07:46:13.015Z,84.65
2023-11-24T07:47:52.906Z,84.8
2023-11-24T07:49:33.189Z,84.95
2023-11-24T07:51:13.653Z,84.39
2023-11-24T07:52:57.092Z,84.86
2023-11-24T07:54:34.337Z,84.93
2023-11-24T07:56:14.758Z,85.02
2023-11-24T07:57:55.149Z,85.23
2023-11-24T07:59:35.657Z,84.88
2023-11-24T08:01:16.099Z,84.92
2023-11-24T08:02:56.382Z,85.15
2023-11-24T08:04:36.790Z,85.23
2023-11-24T08:06:17.175Z,85.26
2023-11-24T08:07:57.508Z,85.2
2023-11-24T08:09:37.914Z,85.42
2023-11-24T08:11:18.319Z,85.72
2023-11-24T08:12:58.727Z,86.14
2023-11-24T08:14:38.977Z,86.2
2023-11-24T08:16:19.478Z,86.23
2023-11-24T08:17:59.773Z,86.31
2023-11-24T08:19:40.064Z,86.37
2023-11-24T08:21:20.418Z,85.92
2023-11-24T08:23:00.783Z,86.74
2023-11-24T08:24:41.104Z,87.59
2023-11-24T08:26:21.485Z,88.17
2023-11-24T08:28:01.896Z,89.41
2023-11-24T08:29:42.250Z,89.92
2023-11-24T08:31:22.703Z,90.11
2023-11-24T08:33:03.064Z,90.11
2023-11-24T08:34:43.439Z,90.6
2023-11-24T08:36:23.803Z,90.88
2023-11-24T08:38:04.174Z,91.16
2023-11-24T08:39:44.629Z,91.52
2023-11-24T08:41:31.179Z,91.8
2023-11-24T08:43:05.430Z,92.34
2023-11-24T08:44:45.831Z,92.52
2023-11-24T08:46:26.296Z,92.88
2023-11-24T08:48:06.704Z,93.2
2023-11-24T08:49:46.938Z,93.44
2023-11-24T08:51:27.414Z,93.7
2023-11-24T08:53:07.755Z,93.88
2023-11-24T08:54:48.149Z,94.02
2023-11-24T08:56:28.576Z,94.02
2023-11-24T08:58:09.026Z,94.08
2023-11-24T08:59:49.359Z,93.79
2023-11-24T09:01:29.864Z,93.8
2023-11-24T09:03:10.219Z,93.82
2023-11-24T09:04:50.785Z,93.88
2023-11-24T09:06:31.138Z,93.95
2023-11-24T09:08:11.584Z,94.04
2023-11-24T09:09:51.968Z,94.15
2023-11-24T09:11:32.413Z,94.27
2023-11-24T09:13:12.858Z,94.24
2023-11-24T09:14:53.222Z,94.26
2023-11-24T09:16:33.783Z,93.85
2023-11-24T09:18:14.111Z,92.94
2023-11-24T09:19:54.446Z,92.41
2023-11-24T09:21:35.074Z,92.36
2023-11-24T09:23:15.340Z,92.14
2023-11-24T09:24:55.774Z,91.7
2023-11-24T09:26:36.153Z,91.47
2023-11-24T09:28:16.617Z,91.5
2023-11-24T09:29:56.863Z,91.36
2023-11-24T09:31:37.347Z,91.3
2023-11-24T09:33:17.743Z,91.24
2023-11-24T09:34:58.199Z,91.6
2023-11-24T09:36:38.666Z,91.69
2023-11-24T09:38:18.989Z,91.85
2023-11-24T09:39:59.445Z,92.17
2023-11-24T09:41:39.795Z,92.19
2023-11-24T09:43:20.337Z,91.6
2023-11-24T09:45:00.662Z,92.02
2023-11-24T09:46:49.086Z,91.42
2023-11-24T09:48:23.717Z,91.18
2023-11-24T09:50:01.919Z,90.68
2023-11-24T09:51:42.369Z,90.57
2023-11-24T09:53:22.729Z,90.19
2023-11-24T09:55:03.255Z,90.16
2023-11-24T09:56:43.801Z,90.01
2023-11-24T09:58:24.027Z,90.12
2023-11-24T10:00:04.458Z,89.69
2023-11-24T10:01:44.831Z,89.38
2023-11-24T10:03:25.315Z,88.93
2023-11-24T10:05:05.774Z,88.37
2023-11-24T10:06:46.140Z,88.65
2023-11-24T10:08:26.535Z,88.65
2023-11-24T10:10:07.102Z,88.94
2023-11-24T10:11:47.379Z,89.3
2023-11-24T10:13:27.814Z,88.72
2023-11-24T10:15:08.220Z,88.49
2023-11-24T10:16:48.661Z,88.4
2023-11-24T10:18:29.113Z,87.85
2023-11-24T10:20:09.646Z,87.4
2023-11-24T10:21:50.145Z,88.13
2023-11-24T10:23:30.589Z,87.97
2023-11-24T10:25:11.021Z,87.71
2023-11-24T10:26:51.476Z,87.25
2023-11-24T10:28:31.796Z,86.94
2023-11-24T10:30:12.256Z,86.91
2023-11-24T10:31:52.601Z,87.09
2023-11-24T10:33:35.499Z,86.83
2023-11-24T10:35:13.359Z,86.56
2023-11-24T10:36:53.728Z,86.51
2023-11-24T10:38:34.042Z,86.22
2023-11-24T10:40:14.509Z,85.87
2023-11-24T10:41:54.853Z,85.87
2023-11-24T10:43:35.723Z,85.24
2023-11-24T10:45:15.681Z,85.34
2023-11-24T10:46:56.031Z,85.24
2023-11-24T10:48:36.443Z,85.46
2023-11-24T10:50:16.937Z,85.07
2023-11-24T10:51:57.136Z,84.92
2023-11-24T10:53:37.499Z,84.76
2023-11-24T10:55:17.983Z,85.52
2023-11-24T10:56:58.346Z,85.44
2023-11-24T10:58:38.670Z,84.84
2023-11-24T11:00:19.004Z,83.74
2023-11-24T11:01:59.634Z,83.35
2023-11-24T11:03:40.015Z,83.6
2023-11-24T11:05:20.351Z,83.61
2023-11-24T11:07:00.738Z,82.4
2023-11-24T11:08:41.094Z,82.84
2023-11-24T11:10:21.543Z,80.5
2023-11-24T11:12:01.874Z,79.73
2023-11-24T11:13:42.316Z,79.16
2023-11-24T11:15:22.774Z,79.12
2023-11-24T11:17:03.187Z,78.02
2023-11-24T11:18:43.598Z,79.3
2023-11-24T11:20:24.017Z,78.93
2023-11-24T11:22:04.439Z,77.75
2023-11-24T11:23:44.799Z,79.01
2023-11-24T11:25:25.272Z,78.22
2023-11-24T11:27:05.563Z,77.7
2023-11-24T11:28:46.013Z,75.51
2023-11-24T11:30:26.380Z,75.26
2023-11-24T11:32:06.905Z,75.75
2023-11-24T11:33:47.295Z,75.36
2023-11-24T11:35:27.639Z,73.81
2023-11-24T11:37:08.689Z,74.72
2023-11-24T11:38:48.441Z,74.21
2023-11-24T11:40:28.841Z,73.52
2023-11-24T11:42:09.199Z,73.12
2023-11-24T11:43:50.180Z,72.49
2023-11-24T11:45:29.989Z,73.17
2023-11-24T11:47:10.330Z,74.62
2023-11-24T11:48:50.754Z,73.68
2023-11-24T11:50:31.110Z,73.35
2023-11-24T11:52:11.615Z,73.79
2023-11-24T11:53:52.005Z,74.01
2023-11-24T11:55:32.464Z,74.4
2023-11-24T11:57:12.941Z,74.25
2023-11-24T11:58:53.390Z,74.06
2023-11-24T12:00:33.843Z,73.51
2023-11-24T12:02:18.214Z,73.74
2023-11-24T12:03:54.698Z,73.44
2023-11-24T12:05:35.043Z,74.51
2023-11-24T12:07:15.455Z,74.41
2023-11-24T12:08:55.952Z,73.35
2023-11-24T12:10:36.384Z,73.33
2023-11-24T12:12:16.845Z,73.97
2023-11-24T12:13:57.190Z,72.51
2023-11-24T12:15:37.610Z,72.19
2023-11-24T12:17:18.018Z,72.05
2023-11-24T12:18:58.369Z,72.64
2023-11-24T12:20:38.760Z,72.59
2023-11-24T12:22:19.226Z,72.5
2023-11-24T12:24:12.151Z,72.99
2023-11-24T12:25:40.992Z,72.98
2023-11-24T12:27:20.475Z,72.63
2023-11-24T12:29:00.942Z,73.31
2023-11-24T12:30:41.357Z,72.77
2023-11-24T12:32:21.855Z,73.64
2023-11-24T12:34:02.269Z,73.89
2023-11-24T12:35:42.677Z,74.27
2023-11-24T12:37:23.194Z,75.34
2023-11-24T12:39:03.457Z,75.24
2023-11-24T12:40:43.890Z,75.75
2023-11-24T12:42:24.275Z,76.28
2023-11-24T12:44:04.640Z,75.7
2023-11-24T12:45:45.116Z,76.2
2023-11-24T12:47:40.103Z,76.78
2023-11-24T12:49:05.850Z,76.95
2023-11-24T12:50:46.162Z,77.32
2023-11-24T12:52:26.582Z,77.56
2023-11-24T12:54:07.014Z,77.91
2023-11-24T12:55:47.379Z,78.54
2023-11-24T12:57:27.793Z,78.75
2023-11-24T12:59:08.216Z,79.27
2023-11-24T13:00:48.616Z,79.82
2023-11-24T13:02:29.229Z,80.15
2023-11-24T13:04:12.993Z,80.76
2023-11-24T13:05:49.829Z,80.44
2023-11-24T13:07:30.340Z,81.06
2023-11-24T13:09:10.820Z,81.48
2023-11-24T13:10:51.917Z,81.35
2023-11-24T13:12:31.624Z,80.18
2023-11-24T13:14:12.006Z,79.07
2023-11-24T13:15:52.549Z,78.13
2023-11-24T13:17:32.883Z,76.9
2023-11-24T13:19:13.300Z,77
2023-11-24T13:20:53.529Z,76.56
2023-11-24T13:22:33.998Z,76.91
2023-11-24T13:24:14.416Z,76.16
2023-11-24T13:25:54.772Z,76.4
2023-11-24T13:27:35.174Z,77.27
2023-11-24T13:29:15.471Z,78.87
2023-11-24T13:30:56.000Z,80.63
2023-11-24T13:32:36.313Z,81.21
2023-11-24T13:34:16.786Z,82.11
2023-11-24T13:35:57.265Z,83.63
2023-11-24T13:37:37.769Z,84.3
2023-11-24T13:39:18.073Z,84.84
2023-11-24T13:40:58.551Z,84.49
2023-11-24T13:42:38.966Z,85.2
2023-11-24T13:44:19.369Z,85.07
2023-11-24T13:45:59.788Z,84.13
2023-11-24T13:47:40.175Z,83.64
2023-11-24T13:49:20.565Z,83.61
2023-11-24T13:51:03.022Z,83.64
2023-11-24T13:52:41.353Z,84.24
2023-11-24T13:54:21.730Z,84.97
2023-11-24T13:56:02.092Z,85.17
2023-11-24T13:57:42.587Z,85.57
2023-11-24T13:59:23.056Z,85.54
2023-11-24T14:01:03.585Z,85.56
2023-11-24T14:02:44.073Z,86.05
2023-11-24T14:04:24.373Z,85.59
2023-11-24T14:06:04.691Z,85.7
2023-11-24T14:07:45.077Z,86.18
2023-11-24T14:09:25.469Z,86.4
2023-11-24T14:11:05.967Z,86.27
2023-11-24T14:12:46.337Z,86.06
2023-11-24T14:14:26.731Z,85.97
2023-11-24T14:16:07.212Z,86.27
2023-11-24T14:17:47.521Z,86.62
2023-11-24T14:19:27.911Z,86.59
2023-11-24T14:21:08.334Z,86.69
2023-11-24T14:22:48.686Z,86.23
2023-11-24T14:24:29.076Z,86.53
2023-11-24T14:26:09.500Z,86.55
2023-11-24T14:27:49.926Z,86.45
2023-11-24T14:29:30.226Z,87.01
2023-11-24T14:31:10.669Z,87.13
2023-11-24T14:32:51.088Z,87.35
2023-11-24T14:34:31.549Z,87.59
2023-11-24T14:36:11.988Z,87.54
2023-11-24T14:37:52.411Z,87.7
2023-11-24T14:39:32.996Z,87.56
2023-11-24T14:41:13.226Z,87.97
2023-11-24T14:42:54.004Z,88.35
2023-11-24T14:44:34.114Z,87.62
2023-11-24T14:46:17.016Z,87.85
2023-11-24T14:47:54.989Z,88.17
2023-11-24T14:49:35.512Z,88.22
2023-11-24T14:51:15.874Z,88.33
2023-11-24T14:52:56.285Z,88.67
2023-11-24T14:54:36.677Z,89.25
2023-11-24T14:56:17.093Z,89.47
2023-11-24T14:57:57.501Z,87.81
2023-11-24T14:59:37.841Z,88.74
2023-11-24T15:01:18.273Z,89.67
2023-11-24T15:02:58.696Z,90.51
2023-11-24T15:04:39.125Z,91.2
2023-11-24T15:06:19.459Z,91.85
2023-11-24T15:07:59.797Z,92.47
2023-11-24T15:09:40.222Z,92.99
2023-11-24T15:11:20.678Z,93.42
2023-11-24T15:13:01.164Z,93.93
2023-11-24T15:14:41.656Z,94.24
2023-11-24T15:16:22.079Z,94.61
2023-11-24T15:18:02.460Z,94.9
2023-11-24T15:19:42.875Z,95.2
2023-11-24T15:21:23.250Z,95.3
2023-11-24T15:23:03.631Z,95.33
2023-11-24T15:24:44.075Z,95.34
2023-11-24T15:26:24.427Z,95.27
2023-11-24T15:28:04.796Z,95.23
2023-11-24T15:29:45.217Z,95.21
2023-11-24T15:31:25.669Z,95.3
2023-11-24T15:33:06.118Z,95.47
2023-11-24T15:34:46.452Z,95.72
2023-11-24T15:36:26.965Z,95.97
2023-11-24T15:38:07.360Z,96.21
2023-11-24T15:39:47.807Z,96.33
2023-11-24T15:41:28.121Z,96.32
2023-11-24T15:43:08.640Z,96.54
2023-11-24T15:44:49.001Z,96.76
2023-11-24T15:46:29.489Z,96.75
2023-11-24T15:48:09.923Z,96.72
2023-11-24T15:49:50.248Z,96.6
2023-11-24T15:51:30.624Z,96.57
2023-11-24T15:53:11.145Z,96.58
2023-11-24T15:54:51.475Z,96.39
2023-11-24T15:56:31.880Z,96.46
2023-11-24T15:58:12.337Z,96.18
2023-11-24T15:59:52.602Z,95.85
2023-11-24T16:01:33.174Z,95.27
2023-11-24T16:03:13.581Z,94.54
2023-11-24T16:04:56.655Z,94.44
2023-11-24T16:06:34.337Z,93.85
2023-11-24T16:08:14.819Z,93.7
2023-11-24T16:09:55.228Z,93.81
2023-11-24T16:11:35.540Z,93.91
2023-11-24T16:13:15.999Z,93.77
2023-11-24T16:14:56.340Z,93.51
2023-11-24T16:16:36.839Z,92.99
2023-11-24T16:18:17.198Z,91.78
2023-11-24T16:19:57.606Z,91.39
2023-11-24T16:21:38.007Z,90.98
2023-11-24T16:23:18.489Z,90.45
2023-11-24T16:24:58.899Z,90.31
2023-11-24T16:26:39.305Z,90.6
2023-11-24T16:28:19.759Z,90.79
2023-11-24T16:30:00.107Z,90.36
2023-11-24T16:31:40.519Z,90.73
2023-11-24T16:33:20.907Z,90.68
2023-11-24T16:35:01.300Z,90.55
2023-11-24T16:36:41.819Z,90.31
2023-11-24T16:38:22.151Z,90.47
2023-11-24T16:40:02.660Z,90.95
2023-11-24T16:41:42.996Z,90.44
2023-11-24T16:43:23.420Z,90.64
2023-11-24T16:45:03.750Z,90.43
2023-11-24T16:46:46.240Z,90.28
2023-11-24T16:48:24.650Z,89.62
2023-11-24T16:50:05.122Z,89.7
2023-11-24T16:51:45.461Z,89.34
2023-11-24T16:53:25.811Z,89.54
2023-11-24T16:55:06.397Z,89.72
2023-11-24T16:56:46.717Z,89.32
2023-11-24T16:58:27.203Z,89.14
2023-11-24T17:00:07.587Z,88.79
2023-11-24T17:01:48.315Z,88.72
2023-11-24T17:03:30.920Z,88.84
2023-11-24T17:05:08.922Z,89.16
2023-11-24T17:06:49.453Z,88.87
2023-11-24T17:08:29.743Z,88.57
2023-11-24T17:10:10.288Z,88.92
2023-11-24T17:11:50.624Z,88.79
2023-11-24T17:13:31.063Z,88.63
2023-11-24T17:15:11.477Z,88.97
2023-11-24T17:16:51.824Z,89.31
2023-11-24T17:18:32.307Z,89.2
2023-11-24T17:20:12.720Z,88.9
2023-11-24T17:21:53.217Z,89.3
2023-11-24T17:23:33.718Z,89.29
2023-11-24T17:25:24.646Z,89.15
2023-11-24T17:26:54.580Z,89.32
2023-11-24T17:28:35.068Z,89.15
2023-11-24T17:30:15.538Z,89.12
2023-11-24T17:31:56.012Z,89.44
2023-11-24T17:33:36.380Z,89.12
2023-11-24T17:35:16.683Z,88.62
2023-11-24T17:36:57.114Z,88.64
2023-11-24T17:38:37.447Z,89.05
2023-11-24T17:40:17.972Z,89.07
2023-11-24T17:41:58.216Z,89
2023-11-24T17:43:38.642Z,89.17
2023-11-24T17:45:19.153Z,89.07
2023-11-24T17:46:59.715Z,88.26
2023-11-24T17:48:39.978Z,88.76
2023-11-24T17:50:20.472Z,88.92
2023-11-24T17:52:00.766Z,89.62
2023-11-24T17:53:41.103Z,90.2
2023-11-24T17:55:21.798Z,89.83
2023-11-24T17:57:01.896Z,90.23
2023-11-24T17:58:42.302Z,90.43
2023-11-24T18:00:22.886Z,90.62
2023-11-24T18:02:03.373Z,91.11
2023-11-24T18:03:43.628Z,91.24
2023-11-24T18:05:23.951Z,91.59
2023-11-24T18:07:04.430Z,91.9
2023-11-24T18:08:44.849Z,91.67
2023-11-24T18:10:25.202Z,91.79
2023-11-24T18:12:05.713Z,92.07
2023-11-24T18:13:46.112Z,92.09
2023-11-24T18:15:26.570Z,92.16
2023-11-24T18:17:07.026Z,91.93
2023-11-24T18:18:47.269Z,91.53
2023-11-24T18:20:27.681Z,91.64
2023-11-24T18:22:08.026Z,91.88
2023-11-24T18:23:48.431Z,91.76
2023-11-24T18:25:28.774Z,91.74
2023-11-24T18:27:09.128Z,91.69
2023-11-24T18:28:49.561Z,91.31
2023-11-24T18:30:29.896Z,91.53
2023-11-24T18:32:10.429Z,91.15
2023-11-24T18:33:50.859Z,90.76
2023-11-24T18:35:31.250Z,90.81
2023-11-24T18:37:11.655Z,91.14
2023-11-24T18:38:52.032Z,91.37
2023-11-24T18:40:32.483Z,91
2023-11-24T18:42:12.852Z,91.23
2023-11-24T18:43:53.230Z,91.33
2023-11-24T18:45:33.603Z,91.35
2023-11-24T18:47:14.040Z,91.01
2023-11-24T18:48:54.525Z,90.87
2023-11-24T18:50:34.931Z,90.77
2023-11-24T18:52:15.469Z,91.14
2023-11-24T18:53:55.805Z,90.46
2023-11-24T18:55:36.245Z,89.97
2023-11-24T18:57:16.510Z,90.23
2023-11-24T18:58:56.897Z,90.45
2023-11-24T19:00:37.301Z,90.63
2023-11-24T19:02:17.851Z,90.26
2023-11-24T19:03:58.242Z,90.89
2023-11-24T19:05:38.575Z,90.08
2023-11-24T19:07:18.972Z,90.46
2023-11-24T19:08:59.812Z,90.86
2023-11-24T19:10:39.766Z,90.92
2023-11-24T19:12:20.186Z,90.96
2023-11-24T19:14:00.672Z,91.08
2023-11-24T19:15:41.191Z,91.24
2023-11-24T19:17:21.444Z,91.2
2023-11-24T19:19:01.933Z,91.48
2023-11-24T19:20:42.433Z,91.88
2023-11-24T19:22:22.837Z,92.07
2023-11-24T19:24:03.277Z,92.39
2023-11-24T19:25:43.654Z,92.07
2023-11-24T19:27:24.062Z,92.5
2023-11-24T19:29:08.755Z,92.8
2023-11-24T19:30:45.016Z,92.79
2023-11-24T19:32:25.596Z,92.69
2023-11-24T19:34:05.892Z,92.58
2023-11-24T19:35:46.318Z,92.56
2023-11-24T19:37:26.828Z,92.66
2023-11-24T19:39:07.202Z,92.83
2023-11-24T19:40:47.613Z,92.65
2023-11-24T19:42:27.995Z,93.06
2023-11-24T19:44:08.437Z,92.6
2023-11-24T19:45:48.797Z,92.72
2023-11-24T19:47:29.226Z,92.91
2023-11-24T19:49:09.670Z,92.87
2023-11-24T19:50:50.063Z,93.09
2023-11-24T19:52:30.568Z,93.09
2023-11-24T19:54:11.074Z,93.26
2023-11-24T19:55:51.401Z,93.42
2023-11-24T19:57:31.831Z,93.6
2023-11-24T19:59:12.267Z,93.76
2023-11-24T20:00:52.667Z,94.01
2023-11-24T20:02:33.142Z,94.02
2023-11-24T20:04:13.558Z,94.07
2023-11-24T20:05:53.949Z,93.98
2023-11-24T20:07:34.485Z,93.99
2023-11-24T20:09:14.971Z,94.09
2023-11-24T20:10:55.414Z,94.12
2023-11-24T20:12:35.929Z,93.65
2023-11-24T20:14:16.327Z,93.18
2023-11-24T20:15:56.744Z,92.48
2023-11-24T20:17:37.210Z,92.29
2023-11-24T20:19:17.527Z,92.14
2023-11-24T20:20:57.976Z,91.65
2023-11-24T20:22:38.516Z,91.64
2023-11-24T20:24:18.772Z,91.77
2023-11-24T20:25:59.201Z,91.95
2023-11-24T20:27:39.736Z,91.77
2023-11-24T20:29:21.833Z,91.31
2023-11-24T20:31:00.647Z,91.31
2023-11-24T20:32:41.086Z,91.02
2023-11-24T20:34:21.549Z,90.89
2023-11-24T20:36:01.979Z,91.24
2023-11-24T20:37:42.374Z,91.1
2023-11-24T20:39:22.677Z,90.64
2023-11-24T20:41:03.182Z,90.72
2023-11-24T20:42:43.581Z,90.86
2023-11-24T20:44:24.016Z,90.7
2023-11-24T20:46:04.562Z,91.01
2023-11-24T20:47:44.793Z,91.16
2023-11-24T20:49:25.181Z,90.83
2023-11-24T20:51:05.495Z,90.67
2023-11-24T20:52:45.831Z,90.99
2023-11-24T20:54:26.243Z,90.87
2023-11-24T20:56:06.652Z,90.8
2023-11-24T20:57:47.046Z,91.02
2023-11-24T20:59:27.338Z,91.12
2023-11-24T21:01:07.873Z,90.96
2023-11-24T21:02:48.251Z,90.86
2023-11-24T21:04:28.631Z,90.98
2023-11-24T21:06:08.970Z,90.69
2023-11-24T21:07:49.299Z,90.67
2023-11-24T21:09:29.724Z,90.79
2023-11-24T21:11:10.196Z,90.84
2023-11-24T21:12:50.688Z,90.85
2023-11-24T21:14:31.164Z,90.87
2023-11-24T21:16:11.530Z,90.73
2023-11-24T21:17:51.954Z,90.71
2023-11-24T21:19:32.273Z,90.58
2023-11-24T21:21:12.631Z,90.1
2023-11-24T21:22:53.229Z,90.16
2023-11-24T21:24:33.582Z,89.84
2023-11-24T21:26:14.041Z,89.95
2023-11-24T21:27:54.438Z,89.53
2023-11-24T21:29:34.844Z,89.45
2023-11-24T21:31:15.342Z,89.65
2023-11-24T21:32:55.888Z,89.82
2023-11-24T21:34:36.309Z,89.84
2023-11-24T21:36:16.673Z,90.2
2023-11-24T21:37:57.107Z,90.05